Time;durP1;ratioP1;P1;durP2;ratioP2;P2;SDS_P1;SDS_P2;PMS_P1;PMS_P2;Temp;Humidity;BMP_temperature;BMP_pressure;BME280_temperature;BME280_humidity;BME280_pressure;Samples;Min_cycle;Max_cycle;Signal;HPM_P1;HPM_P2
2023/01/28 00:01:44;;;;;;;9.10;4.95;;;;;;;2.97;60.16;99746.38;5204066;28;20100;-86
2023/01/28 00:04:35;;;;;;;9.60;4.88;;;;;;;3.11;60.11;99753.53;5194140;28;20096;-86
2023/01/28 00:07:25;;;;;;;9.35;5.20;;;;;;;3.10;60.42;99759.72;5201886;28;20056;-86
2023/01/28 00:10:16;;;;;;;9.02;4.60;;;;;;;2.82;60.08;99716.59;5203209;28;20056;-87
2023/01/28 00:13:06;;;;;;;11.65;5.03;;;;;;;2.91;60.48;99732.75;5206757;28;20053;-87
2023/01/28 00:15:59;;;;;;;7.50;4.38;;;;;;;3.20;60.29;99762.72;5221309;28;20045;-86
2023/01/28 00:18:49;;;;;;;9.50;4.75;;;;;;;3.14;59.68;99758.63;5188615;28;20430;-87
2023/01/28 00:21:39;;;;;;;9.00;4.57;;;;;;;3.16;60.29;99756.78;5202004;28;20065;-87
2023/01/28 00:24:29;;;;;;;8.52;4.65;;;;;;;3.12;60.84;99750.00;5193328;28;20056;-87
2023/01/28 00:27:20;;;;;;;9.85;4.57;;;;;;;3.21;60.41;99749.56;5196552;28;20064;-87
2023/01/28 00:30:10;;;;;;;7.70;4.07;;;;;;;2.82;61.36;99742.78;5223950;28;20057;-87
2023/01/28 00:33:00;;;;;;;7.30;3.72;;;;;;;2.78;59.96;99722.91;5224318;28;20053;-87
2023/01/28 00:35:59;;;;;;;8.20;4.32;;;;;;;3.06;60.83;99748.53;5222955;28;20199;-88
2023/01/28 00:38:51;;;;;;;6.57;3.97;;;;;;;2.80;60.91;99694.00;5223481;28;20079;-87
2023/01/28 00:41:41;;;;;;;7.65;3.85;;;;;;;2.63;61.26;99713.19;5223632;28;20181;-87
2023/01/28 00:44:32;;;;;;;8.75;4.07;;;;;;;2.83;60.79;99727.91;5168019;28;20156;-87
2023/01/28 00:47:25;;;;;;;5.03;3.33;;;;;;;2.97;60.79;99724.59;5181725;28;20053;-89
2023/01/28 00:50:16;;;;;;;6.80;3.88;;;;;;;3.08;60.53;99747.59;5181786;28;20482;-87
2023/01/28 00:53:06;;;;;;;7.82;4.10;;;;;;;3.06;60.89;99747.69;5181846;28;20050;-87
2023/01/28 00:55:56;;;;;;;7.13;3.97;;;;;;;2.85;60.19;99705.13;5206147;28;20496;-88
2023/01/28 00:58:46;;;;;;;8.35;3.60;;;;;;;3.00;60.68;99740.16;5210106;28;20049;-87
2023/01/28 01:01:37;;;;;;;6.53;4.03;;;;;;;2.97;60.59;99725.44;5171945;28;20128;-87
2023/01/28 01:04:34;;;;;;;7.65;4.13;;;;;;;2.80;61.42;99722.81;5182178;28;20264;-87
2023/01/28 01:07:42;;;;;;;6.57;3.40;;;;;;;2.97;61.14;99742.91;5170568;28;20050;-88
2023/01/28 01:10:33;;;;;;;7.63;3.78;;;;;;;2.99;61.33;99733.22;5181716;28;20054;-87
2023/01/28 01:13:24;;;;;;;8.10;4.47;;;;;;;3.06;61.61;99756.41;5211563;28;20485;-87
2023/01/28 01:16:15;;;;;;;7.95;4.22;;;;;;;2.91;61.38;99745.84;5226951;28;20056;-88
2023/01/28 01:19:07;;;;;;;9.45;4.38;;;;;;;3.09;61.32;99757.19;5226840;28;20053;-88
2023/01/28 01:21:58;;;;;;;8.15;3.80;;;;;;;2.89;60.74;99716.28;5227227;28;20410;-87
2023/01/28 01:24:48;;;;;;;6.10;3.65;;;;;;;2.96;60.99;99722.91;5228469;28;20400;-86
2023/01/28 01:27:38;;;;;;;8.55;3.90;;;;;;;2.99;61.15;99730.59;5215149;28;20064;-88
2023/01/28 01:30:29;;;;;;;6.90;3.83;;;;;;;2.73;61.61;99727.50;5207086;28;20737;-88
2023/01/28 01:33:18;;;;;;;8.05;4.07;;;;;;;2.52;61.65;99715.50;5226251;28;20064;-87
2023/01/28 01:36:10;;;;;;;6.05;3.75;;;;;;;2.53;61.50;99745.97;5226610;28;20510;-87
2023/01/28 01:39:00;;;;;;;6.07;3.38;;;;;;;2.62;61.78;99748.16;5212159;28;20079;-87
2023/01/28 01:41:51;;;;;;;5.25;3.60;;;;;;;2.82;61.05;99747.16;5213003;28;20518;-88
2023/01/28 01:45:01;;;;;;;8.48;4.07;;;;;;;3.09;61.38;99771.13;5205257;28;20045;-88
2023/01/28 01:47:58;;;;;;;6.03;3.50;;;;;;;2.75;61.64;99766.75;5206964;28;20124;-88
2023/01/28 01:50:55;;;;;;;6.15;3.80;;;;;;;2.92;61.85;99760.66;5205785;28;20060;-88
2023/01/28 01:53:50;;;;;;;8.27;4.03;;;;;;;2.94;61.37;99738.69;5218818;28;20037;-88
2023/01/28 01:56:45;;;;;;;8.15;4.20;;;;;;;2.75;61.96;99751.03;5229018;28;20067;-88
2023/01/28 01:59:36;;;;;;;;;;;;;;;2.86;61.64;99733.00;5212369;28;20049;-88
2023/01/28 02:02:26;;;;;;;7.18;3.83;;;;;;;2.99;61.74;99756.81;5210930;28;19932;-88
2023/01/28 02:05:21;;;;;;;6.75;3.67;;;;;;;2.92;61.97;99753.66;5188232;28;20041;-88
2023/01/28 02:08:21;;;;;;;8.68;3.85;;;;;;;2.99;61.11;99751.56;5187168;28;20183;-88
2023/01/28 02:11:15;;;;;;;6.88;4.03;;;;;;;3.06;60.97;99766.88;5224917;28;20046;-88
2023/01/28 02:14:06;;;;;;;8.50;4.28;;;;;;;2.95;61.78;99732.53;5210294;28;20431;-87
2023/01/28 02:16:56;;;;;;;7.18;4.10;;;;;;;3.04;61.74;99754.78;5204278;28;20053;-87
2023/01/28 02:19:54;;;;;;;8.20;3.88;;;;;;;3.09;61.71;99763.28;5205961;28;20156;-88
2023/01/28 02:22:54;;;;;;;7.47;3.97;;;;;;;3.01;61.93;99768.03;5205565;28;20067;-88
2023/01/28 02:26:04;;;;;;;7.32;4.22;;;;;;;3.18;61.49;99775.91;5209740;28;20243;-88
2023/01/28 02:29:03;;;;;;;6.43;3.95;;;;;;;3.11;61.73;99758.78;5203214;28;20053;-87
2023/01/28 02:32:00;;;;;;;8.10;3.92;;;;;;;3.12;61.60;99776.22;5224721;28;20186;-88
2023/01/28 02:34:58;;;;;;;10.25;5.18;;;;;;;3.10;61.63;99771.97;5239340;28;20230;-88
2023/01/28 02:37:57;;;;;;;7.18;4.28;;;;;;;3.08;61.42;99784.28;5224773;28;20060;-88
2023/01/28 02:41:01;;;;;;;7.32;4.25;;;;;;;3.11;62.00;99769.25;5217244;28;20186;-87
2023/01/28 02:43:52;;;;;;;9.65;4.72;;;;;;;2.99;61.80;99768.13;5183751;28;20057;-88
2023/01/28 02:49:54;;;;;;;8.02;4.45;;;;;;;3.09;62.26;99768.50;5196130;28;20104;-88
2023/01/28 02:56:31;;;;;;;10.88;4.78;;;;;;;3.29;62.02;99784.06;5209516;28;20076;-88
2023/01/28 02:59:48;;;;;;;8.50;4.95;;;;;;;3.24;62.12;99780.81;5198935;28;20513;-87
2023/01/28 03:02:53;;;;;;;8.85;3.97;;;;;;;3.08;62.47;99766.81;5183851;28;20531;-87
2023/01/28 03:06:04;;;;;;;8.73;4.80;;;;;;;3.24;62.67;99790.47;5169652;28;20046;-87
2023/01/28 03:37:48;;;;;;;10.60;5.15;;;;;;;3.21;62.47;99788.88;5202050;28;20152;-88
2023/01/28 03:40:55;;;;;;;9.23;4.97;;;;;;;3.20;62.35;99779.28;5189186;28;20522;-88
2023/01/28 03:43:47;;;;;;;9.65;4.90;;;;;;;3.03;62.73;99766.19;5203480;28;20080;-88
2023/01/28 03:46:38;;;;;;;10.48;5.28;;;;;;;3.09;62.91;99793.88;5229807;28;20067;-88
2023/01/28 03:49:29;;;;;;;10.43;4.88;;;;;;;3.14;62.82;99799.72;5230083;28;20053;-88
2023/01/28 03:52:22;;;;;;;9.88;5.28;;;;;;;3.23;62.63;99797.47;5209855;28;20061;-88
2023/01/28 03:55:12;;;;;;;11.02;5.45;;;;;;;2.87;62.61;99741.69;5228521;28;20049;-87
2023/01/28 03:58:07;;;;;;;9.10;5.20;;;;;;;3.16;62.47;99798.72;5225324;28;20029;-88
2023/01/28 04:00:58;;;;;;;11.32;5.55;;;;;;;3.13;63.15;99788.38;5216128;28;20079;-87
2023/01/28 04:03:48;;;;;;;11.48;5.32;;;;;;;3.10;62.61;99793.78;5230643;28;20045;-86
2023/01/28 04:06:45;;;;;;;10.90;5.60;;;;;;;3.02;63.63;99788.09;5216417;28;20036;-87
2023/01/28 04:10:06;;;;;;;10.30;5.45;;;;;;;3.05;63.58;99795.78;5205785;28;20089;-89
2023/01/28 04:13:07;;;;;;;11.10;5.65;;;;;;;3.17;63.67;99804.81;5209370;28;20107;-89
2023/01/28 04:16:02;;;;;;;9.15;5.15;;;;;;;3.03;63.17;99776.69;5212299;28;20059;-89
2023/01/28 04:18:58;;;;;;;14.77;5.88;;;;;;;2.94;63.19;99762.25;5227430;28;20137;-89
2023/01/28 04:21:49;;;;;;;11.25;6.20;;;;;;;2.92;62.92;99755.41;5227106;28;20134;-89
2023/01/28 04:24:39;;;;;;;11.18;5.35;;;;;;;3.11;63.61;99805.94;5217967;28;20409;-89
2023/01/28 04:27:29;;;;;;;11.50;5.40;;;;;;;3.20;62.99;99795.00;5205784;28;20226;-89
2023/01/28 04:30:28;;;;;;;11.93;6.32;;;;;;;3.22;63.43;99824.63;5184258;28;20530;-90
2023/01/28 04:33:45;;;;;;;13.57;6.82;;;;;;;2.91;63.60;99766.81;5186189;28;20099;-89
2023/01/28 04:36:44;;;;;;;13.68;5.80;;;;;;;3.19;63.05;99821.31;5192691;28;20053;-89
2023/01/28 04:40:08;;;;;;;11.40;5.70;;;;;;;3.09;63.42;99818.28;5178846;28;20349;-89
2023/01/28 04:43:04;;;;;;;13.20;6.05;;;;;;;3.03;63.53;99802.88;5204252;28;20171;-89
2023/01/28 04:46:12;;;;;;;15.32;6.22;;;;;;;3.17;63.45;99821.38;5193180;28;20053;-89
2023/01/28 04:49:05;;;;;;;13.60;5.85;;;;;;;2.93;64.24;99797.25;5195209;28;20132;-89
2023/01/28 04:52:13;;;;;;;11.30;5.90;;;;;;;2.94;64.09;99808.56;5198746;28;20060;-90
2023/01/28 04:55:20;;;;;;;12.45;6.22;;;;;;;3.19;63.56;99829.16;5211995;28;20537;-89
2023/01/28 04:58:10;;;;;;;13.35;6.82;;;;;;;3.11;63.73;99800.69;5212674;28;20071;-89
2023/01/28 05:01:01;;;;;;;11.85;6.57;;;;;;;3.05;63.68;99801.03;5196353;28;20130;-90
2023/01/28 05:03:52;;;;;;;13.48;6.82;;;;;;;3.17;64.21;99829.22;5208623;28;20071;-89
2023/01/28 05:06:46;;;;;;;14.15;7.10;;;;;;;3.04;64.39;99797.53;5195222;28;20063;-90
2023/01/28 05:09:39;;;;;;;15.25;6.78;;;;;;;3.21;64.80;99832.53;5208231;28;20061;-89
2023/01/28 05:12:31;;;;;;;15.75;7.10;;;;;;;3.29;64.55;99841.72;5214188;28;20076;-89
2023/01/28 05:15:25;;;;;;;13.15;6.65;;;;;;;3.27;64.44;99832.25;5209411;28;20572;-91
2023/01/28 05:18:16;;;;;;;13.65;6.88;;;;;;;3.26;64.79;99834.00;5208219;28;20056;-89
2023/01/28 05:21:14;;;;;;;15.15;7.65;;;;;;;3.07;64.70;99822.75;5208440;28;20128;-89
2023/01/28 05:24:06;;;;;;;13.02;6.93;;;;;;;3.08;64.35;99793.03;5208836;28;20123;-89
2023/01/28 05:26:56;;;;;;;11.60;6.53;;;;;;;3.27;64.92;99827.84;5212367;28;20412;-89
2023/01/28 05:29:46;;;;;;;14.82;7.22;;;;;;;3.32;64.65;99847.75;5202874;28;20463;-89
2023/01/28 05:32:37;;;;;;;12.07;6.60;;;;;;;3.25;64.65;99834.09;5206045;28;20057;-89
2023/01/28 05:35:28;;;;;;;13.98;6.85;;;;;;;3.36;64.95;99854.53;5174604;28;20514;-89
2023/01/28 05:38:19;;;;;;;11.32;6.32;;;;;;;3.28;64.55;99850.53;5187769;28;20104;-88
2023/01/28 05:41:09;;;;;;;15.80;6.80;;;;;;;3.17;65.15;99834.47;5189784;28;20424;-90
2023/01/28 05:44:00;;;;;;;16.40;6.55;;;;;;;3.18;64.90;99843.16;5221890;28;20048;-89
2023/01/28 05:47:14;;;;;;;15.80;7.13;;;;;;;3.11;64.96;99824.28;5177920;28;20192;-90
2023/01/28 05:50:19;;;;;;;13.52;6.82;;;;;;;2.97;65.47;99803.19;5188301;28;20056;-89
2023/01/28 05:53:33;;;;;;;14.05;6.55;;;;;;;3.16;65.48;99840.66;5188058;28;20065;-90
2023/01/28 05:56:24;;;;;;;12.85;7.13;;;;;;;3.12;65.33;99833.88;5197351;28;20521;-89
2023/01/28 05:59:15;;;;;;;12.35;6.63;;;;;;;3.01;65.67;99823.06;5208714;28;20195;-89
2023/01/28 06:02:06;;;;;;;14.27;7.05;;;;;;;3.25;65.86;99860.31;5194943;28;20062;-88
2023/01/28 06:04:58;;;;;;;13.35;6.75;;;;;;;3.11;65.90;99832.16;5209053;28;20158;-89
2023/01/28 06:07:49;;;;;;;13.23;6.55;;;;;;;3.32;65.71;99850.38;5207955;28;20539;-90
2023/01/28 06:10:39;;;;;;;15.23;7.28;;;;;;;3.15;65.39;99835.50;5201883;28;20166;-89
2023/01/28 06:13:29;;;;;;;14.27;7.45;;;;;;;3.14;64.87;99836.41;5207567;28;20056;-90
2023/01/28 06:16:42;;;;;;;16.75;7.68;;;;;;;3.18;64.86;99859.78;5193899;28;20076;-90
2023/01/28 06:19:48;;;;;;;15.35;7.35;;;;;;;3.09;66.13;99870.69;5206831;28;20107;-90
2023/01/28 06:22:38;;;;;;;16.20;7.65;;;;;;;3.18;66.21;99885.97;5206997;28;20191;-89
2023/01/28 06:25:29;;;;;;;18.83;8.35;;;;;;;3.24;65.76;99885.66;5217840;28;20527;-89
2023/01/28 06:28:24;;;;;;;14.77;7.57;;;;;;;3.21;65.49;99891.06;5215770;28;20145;-90
2023/01/28 06:31:15;;;;;;;18.15;7.93;;;;;;;2.70;66.57;99869.06;5228119;28;20126;-90
2023/01/28 06:34:05;;;;;;;15.30;7.60;;;;;;;2.96;66.99;99886.16;5242160;28;20052;-90
2023/01/28 06:36:55;;;;;;;15.70;7.55;;;;;;;2.93;66.32;99894.16;5226272;28;20056;-90
2023/01/28 06:39:45;;;;;;;15.27;8.10;;;;;;;3.07;66.53;99896.13;5214997;28;20057;-90
2023/01/28 06:42:35;;;;;;;15.70;7.63;;;;;;;2.86;67.12;99870.97;5230569;28;20257;-89
2023/01/28 06:45:25;;;;;;;20.00;8.05;;;;;;;2.93;67.01;99859.25;5229935;28;20353;-90
2023/01/28 06:48:16;;;;;;;18.42;8.50;;;;;;;3.19;67.12;99908.63;5215397;28;20050;-90
2023/01/28 06:51:06;;;;;;;16.50;8.13;;;;;;;3.10;67.03;99903.84;5203993;28;20073;-92
2023/01/28 06:53:57;;;;;;;18.75;9.05;;;;;;;3.21;67.01;99914.66;5199747;28;20120;-91
2023/01/28 06:56:47;;;;;;;16.35;7.95;;;;;;;3.07;67.23;99888.25;5194082;28;20830;-85
2023/01/28 06:59:37;;;;;;;15.10;7.75;;;;;;;3.26;67.07;99915.25;5205490;28;20127;-89
2023/01/28 07:02:27;;;;;;;17.10;8.98;;;;;;;3.18;66.68;99901.69;5204305;28;20065;-88
2023/01/28 07:05:18;;;;;;;18.73;9.50;;;;;;;3.04;67.65;99885.78;5203309;28;20521;-91
2023/01/28 07:08:09;;;;;;;29.05;10.88;;;;;;;3.32;66.91;99919.38;5184535;28;20574;-85
2023/01/28 07:10:59;;;;;;;18.38;9.48;;;;;;;3.12;66.77;99904.63;5201863;28;20543;-88
2023/01/28 07:13:50;;;;;;;15.00;7.90;;;;;;;3.02;66.58;99878.00;5199120;28;20060;-88
2023/01/28 07:16:40;;;;;;;20.75;9.32;;;;;;;3.22;66.91;99926.00;5198914;28;20517;-90
2023/01/28 07:19:30;;;;;;;17.55;9.32;;;;;;;3.16;67.12;99921.03;5200917;28;20652;-87
2023/01/28 07:22:21;;;;;;;16.95;8.45;;;;;;;3.00;66.39;99899.97;5187924;28;20049;-88
2023/01/28 07:25:12;;;;;;;22.23;10.50;;;;;;;3.15;66.97;99896.59;5188409;28;20427;-89
2023/01/28 07:28:03;;;;;;;18.17;9.32;;;;;;;3.29;66.94;99930.84;5200313;28;20052;-87
2023/01/28 07:30:54;;;;;;;18.02;9.77;;;;;;;2.77;66.57;99860.00;5187610;28;20052;-88
2023/01/28 07:33:44;;;;;;;18.90;8.90;;;;;;;2.77;67.24;99860.00;5197384;28;20091;-89
2023/01/28 07:36:34;;;;;;;19.58;9.23;;;;;;;3.40;67.24;99937.34;5186730;28;20108;-90
2023/01/28 07:39:25;;;;;;;18.02;8.75;;;;;;;3.03;67.02;99897.19;5199879;28;20056;-91
2023/01/28 07:42:17;;;;;;;19.38;9.85;;;;;;;3.27;67.80;99935.31;5212653;28;20038;-93
2023/01/28 07:45:11;;;;;;;19.92;10.38;;;;;;;3.43;67.30;99952.91;5216030;28;20057;-88
2023/01/28 07:48:05;;;;;;;25.50;10.98;;;;;;;3.48;67.14;99953.56;5190598;28;20318;-85
2023/01/28 07:50:59;;;;;;;17.67;9.18;;;;;;;3.33;67.94;99933.31;5205759;28;20049;-86
2023/01/28 07:53:49;;;;;;;19.92;9.20;;;;;;;3.37;67.12;99930.47;5187465;28;20070;-89
2023/01/28 07:56:39;;;;;;;27.73;13.63;;;;;;;3.41;66.98;99941.66;5175648;28;20455;-88
2023/01/28 07:59:28;;;;;;;22.08;11.38;;;;;;;3.38;66.54;99928.69;5192056;28;20053;-89
2023/01/28 08:02:19;;;;;;;22.60;11.07;;;;;;;3.42;66.56;99930.25;5178361;28;20045;-88
2023/01/28 08:05:09;;;;;;;20.83;11.32;;;;;;;3.42;66.34;99949.44;5187353;28;20192;-88
2023/01/28 08:07:59;;;;;;;23.70;13.38;;;;;;;3.24;67.10;99919.72;5188267;28;20052;-88
2023/01/28 08:10:50;;;;;;;23.80;10.82;;;;;;;3.59;66.56;99956.47;5192720;28;20419;-89
2023/01/28 08:13:40;;;;;;;22.75;11.25;;;;;;;3.69;66.81;99970.00;5193982;28;20093;-89
2023/01/28 08:16:30;;;;;;;20.67;11.43;;;;;;;3.60;66.35;99952.91;5193812;28;20109;-89
2023/01/28 08:19:20;;;;;;;24.70;11.13;;;;;;;3.78;66.31;99981.81;5207421;28;20060;-89
2023/01/28 08:22:11;;;;;;;27.60;13.23;;;;;;;3.52;67.05;99926.25;5207127;28;20061;-89
2023/01/28 08:25:01;;;;;;;24.50;12.20;;;;;;;3.67;65.80;99963.97;5186213;28;20060;-89
2023/01/28 08:27:51;;;;;;;30.27;15.13;;;;;;;3.66;65.98;99955.25;5188611;28;20050;-89
2023/01/28 08:30:41;;;;;;;25.55;13.38;;;;;;;3.84;65.95;99973.59;5160679;28;20516;-89
2023/01/28 08:33:31;;;;;;;25.67;13.20;;;;;;;3.90;65.93;99962.81;5160672;28;20054;-89
2023/01/28 08:36:22;;;;;;;25.88;14.15;;;;;;;3.83;66.09;99983.25;5159281;28;20428;-89
2023/01/28 08:39:12;;;;;;;33.83;17.50;;;;;;;3.71;65.71;99957.66;5182558;28;20347;-89
2023/01/28 08:42:04;;;;;;;31.38;16.33;;;;;;;3.99;65.56;99980.72;5202689;28;20052;-89
2023/01/28 08:44:54;;;;;;;24.75;11.02;;;;;;;3.55;65.31;99925.25;5206674;28;20054;-88
2023/01/28 08:47:53;;;;;;;27.35;14.00;;;;;;;3.73;65.31;99968.91;5193569;28;20148;-89
2023/01/28 08:50:44;;;;;;;24.88;13.18;;;;;;;3.95;66.12;99981.81;5180018;28;20068;-89
2023/01/28 08:53:34;;;;;;;30.92;15.48;;;;;;;4.03;65.03;99968.28;5197424;28;20053;-89
2023/01/28 08:56:25;;;;;;;23.52;12.07;;;;;;;3.78;65.10;99932.81;5212282;28;20124;-90
2023/01/28 08:59:15;;;;;;;27.25;12.27;;;;;;;4.10;65.67;99967.03;5180040;28;20041;-91
2023/01/28 09:02:05;;;;;;;27.15;12.60;;;;;;;4.19;65.06;99972.66;5188244;28;20647;-90
2023/01/28 09:04:56;;;;;;;23.58;12.52;;;;;;;4.08;65.10;99974.16;5189310;28;20160;-91
2023/01/28 09:07:47;;;;;;;22.35;12.05;;;;;;;4.19;65.25;99969.19;5173555;28;20296;-91
2023/01/28 09:10:37;;;;;;;24.00;11.95;;;;;;;4.15;65.74;99960.63;5171694;28;20056;-91
2023/01/28 09:13:28;;;;;;;27.80;12.88;;;;;;;4.41;65.13;100000.44;5186659;28;20128;-90
2023/01/28 09:16:19;;;;;;;23.65;12.55;;;;;;;4.26;65.07;99996.81;5223147;28;20056;-92
2023/01/28 09:19:13;;;;;;;23.52;12.43;;;;;;;4.40;64.16;100004.84;5237557;28;20064;-91
2023/01/28 09:22:05;;;;;;;27.38;12.85;;;;;;;4.16;64.98;100006.94;5229917;28;20045;-91
2023/01/28 09:24:56;;;;;;;23.92;13.43;;;;;;;4.27;63.94;100002.91;5205070;28;20056;-91
2023/01/28 09:27:46;;;;;;;39.00;18.33;;;;;;;4.21;64.15;99989.19;5206997;28;20032;-92
2023/01/28 09:30:36;;;;;;;78.85;40.90;;;;;;;4.23;64.13;99986.47;5234279;28;20055;-92
2023/01/28 09:33:27;;;;;;;28.73;15.15;;;;;;;4.10;64.85;100020.38;5236492;28;20063;-91
2023/01/28 09:36:17;;;;;;;27.00;13.50;;;;;;;4.23;64.63;100010.09;5235186;28;20411;-91
2023/01/28 09:39:07;;;;;;;25.83;13.85;;;;;;;4.20;63.72;99974.34;5199534;28;20070;-91
2023/01/28 09:42:25;;;;;;;28.20;13.52;;;;;;;4.21;65.17;99999.69;5195203;28;20052;-90
2023/01/28 09:45:41;;;;;;;25.73;13.50;;;;;;;4.39;64.24;100025.91;5193349;28;20079;-91
2023/01/28 09:48:43;;;;;;;28.05;14.05;;;;;;;4.50;64.02;100033.22;5179210;28;20072;-89
2023/01/28 09:51:49;;;;;;;33.38;13.38;;;;;;;4.53;63.85;100031.28;5195862;28;20060;-84
2023/01/28 09:54:48;;;;;;;27.83;13.48;;;;;;;4.20;63.59;99994.50;5184949;28;20052;-91
2023/01/28 09:57:44;;;;;;;30.23;13.23;;;;;;;4.42;64.16;100017.88;5196792;28;20393;-91
2023/01/28 10:00:51;;;;;;;29.20;13.15;;;;;;;4.45;63.24;100008.06;5211787;28;20115;-92
2023/01/28 10:04:21;;;;;;;26.60;13.15;;;;;;;4.66;63.86;100040.22;5192749;28;20191;-92
2023/01/28 10:07:35;;;;;;;29.15;14.38;;;;;;;4.39;63.72;99992.63;5191023;28;20531;-92
2023/01/28 10:10:31;;;;;;;26.40;12.63;;;;;;;4.46;63.77;100033.38;5226619;22;20530;-70
2023/01/28 10:13:47;;;;;;;28.35;13.00;;;;;;;4.67;63.83;100034.06;5206649;28;20110;-70
2023/01/28 10:16:49;;;;;;;28.20;12.13;;;;;;;4.72;64.09;100029.41;5207289;28;20059;-70
2023/01/28 10:19:45;;;;;;;29.42;13.45;;;;;;;4.81;63.12;100025.44;5205419;28;20059;-68
2023/01/28 10:22:46;;;;;;;28.75;13.93;;;;;;;4.80;63.58;100002.72;5212317;28;20089;-69
2023/01/28 10:25:43;;;;;;;26.10;12.30;;;;;;;5.03;63.34;100021.63;5213424;28;20545;-70
2023/01/28 10:28:34;;;;;;;28.67;12.55;;;;;;;4.87;64.02;99998.00;5204996;28;20432;-69
2023/01/28 10:31:33;;;;;;;34.28;15.13;;;;;;;5.01;62.97;100008.59;5204127;28;20096;-70
2023/01/28 10:34:24;;;;;;;42.80;17.23;;;;;;;5.05;63.05;99998.75;5204722;28;20080;-70
2023/01/28 10:37:15;;;;;;;37.92;15.35;;;;;;;5.05;63.49;100006.66;5204191;28;20068;-69
2023/01/28 10:40:11;;;;;;;47.60;19.48;;;;;;;4.93;62.71;100006.41;5212022;28;20529;-71
2023/01/28 10:43:03;;;;;;;60.13;23.23;;;;;;;5.09;61.87;100009.00;5204832;28;20143;-70
2023/01/28 10:46:01;;;;;;;34.40;14.82;;;;;;;5.25;62.62;100000.28;5203907;28;20428;-70
2023/01/28 10:48:58;;;;;;;26.75;13.27;;;;;;;5.33;62.00;99985.78;5204063;28;20108;-70
2023/01/28 10:51:48;;;;;;;27.92;11.77;;;;;;;5.44;61.57;100002.75;5204396;28;20431;-71
2023/01/28 10:54:38;;;;;;;24.65;12.07;;;;;;;5.23;61.52;99987.25;5225118;28;20438;-69
2023/01/28 10:57:28;;;;;;;24.17;12.32;;;;;;;5.04;62.72;100005.81;5209122;28;20054;-69
2023/01/28 11:00:19;;;;;;;28.58;11.80;;;;;;;5.32;62.07;100015.63;5212228;28;20081;-70
2023/01/28 11:03:17;;;;;;;22.70;11.48;;;;;;;5.13;62.12;100007.94;5204076;28;20541;-69
2023/01/28 11:06:23;;;;;;;27.27;12.43;;;;;;;4.85;61.66;99994.59;5204214;28;20064;-70
2023/01/28 11:09:31;;;;;;;24.85;12.63;;;;;;;5.19;61.35;100023.34;5203244;28;20123;-70
2023/01/28 11:12:26;;;;;;;27.98;12.23;;;;;;;5.05;61.94;100019.78;5213875;28;20056;-70
2023/01/28 11:15:16;;;;;;;23.42;12.07;;;;;;;5.23;61.42;100016.16;5223312;28;20055;-71
2023/01/28 11:18:17;;;;;;;24.85;12.13;;;;;;;4.87;61.58;100013.75;5221224;28;20482;-71
2023/01/28 11:21:18;;;;;;;27.02;11.85;;;;;;;4.95;61.73;100012.41;5223384;28;20146;-71
2023/01/28 11:24:21;;;;;;;25.17;11.35;;;;;;;4.96;61.17;100002.72;5224489;28;20060;-71
2023/01/28 11:27:17;;;;;;;25.65;12.25;;;;;;;5.02;61.28;100022.59;5213335;28;20451;-71
2023/01/28 11:30:21;;;;;;;27.92;13.38;;;;;;;4.94;62.15;100018.59;5210768;28;20511;-71
2023/01/28 11:33:11;;;;;;;28.08;11.63;;;;;;;4.97;61.98;100025.47;5203402;28;20073;-70
2023/01/28 11:36:14;;;;;;;26.90;12.75;;;;;;;4.84;62.21;99999.00;5203583;28;20577;-70
2023/01/28 11:39:24;;;;;;;26.83;11.88;;;;;;;4.95;62.29;100022.06;5203012;28;20577;-71
2023/01/28 11:42:18;;;;;;;25.08;11.93;;;;;;;4.82;62.91;100016.63;5213468;28;20522;-70
2023/01/28 11:45:16;;;;;;;20.50;10.55;;;;;;;4.86;62.87;100023.41;5203283;28;20225;-71
2023/01/28 11:48:27;;;;;;;22.25;10.40;;;;;;;4.81;63.39;100035.09;5202590;28;20434;-70
2023/01/28 11:51:42;;;;;;;19.80;10.02;;;;;;;4.24;65.42;100023.16;5207667;28;20047;-71
2023/01/28 11:54:46;;;;;;;20.40;9.90;;;;;;;4.36;65.08;100015.56;5222571;28;20418;-71
2023/01/28 11:57:42;;;;;;;21.00;9.73;;;;;;;4.34;66.43;100035.78;5210411;28;20316;-71
2023/01/28 12:00:51;;;;;;;21.23;10.02;;;;;;;4.48;66.45;100034.16;5210447;28;20145;-70
2023/01/28 12:04:12;;;;;;;23.75;10.02;;;;;;;4.23;66.34;100034.56;5213894;28;20107;-71
2023/01/28 12:07:29;;;;;;;20.17;10.15;;;;;;;4.18;67.73;100036.59;5205192;28;20065;-71
2023/01/28 12:10:25;;;;;;;20.92;9.80;;;;;;;4.36;66.53;100041.81;5212695;28;20541;-70
2023/01/28 12:13:34;;;;;;;19.92;10.20;;;;;;;4.26;66.52;100030.94;5203926;28;20096;-70
2023/01/28 12:16:34;;;;;;;18.30;9.45;;;;;;;4.35;66.04;100037.50;5202787;28;20111;-71
2023/01/28 12:19:43;;;;;;;19.17;9.50;;;;;;;4.37;66.48;100040.88;5202410;28;20052;-71
2023/01/28 12:22:43;;;;;;;18.55;9.63;;;;;;;3.85;66.38;100038.28;5202701;28;20568;-70
2023/01/28 12:25:57;;;;;;;21.05;9.77;;;;;;;3.87;68.31;100039.88;5210781;28;20115;-71
2023/01/28 12:29:05;;;;;;;21.38;10.43;;;;;;;4.08;67.21;100040.63;5201956;28;20060;-70
2023/01/28 12:32:30;;;;;;;22.25;10.43;;;;;;;4.10;67.55;100041.38;5223333;28;20076;-72
2023/01/28 12:35:43;;;;;;;;;;;;;;;4.19;67.30;100043.53;5225705;28;20598;-72
2023/01/28 12:39:11;;;;;;;20.20;9.55;;;;;;;4.22;66.97;100034.66;5209191;28;20425;-70
2023/01/28 12:42:40;;;;;;;22.33;9.20;;;;;;;4.26;67.29;100036.19;5202164;28;20531;-71
2023/01/28 12:45:44;;;;;;;26.17;10.80;;;;;;;4.22;66.68;100025.00;5156665;28;20057;-71
2023/01/28 12:48:41;;;;;;;18.65;10.48;;;;;;;3.84;67.51;100023.44;5166797;28;20119;-70
2023/01/28 12:51:57;;;;;;;19.85;10.07;;;;;;;4.10;67.74;100023.00;5206575;28;20116;-71
2023/01/28 12:55:17;;;;;;;21.85;9.95;;;;;;;4.15;66.86;100031.50;5207251;28;20108;-71
2023/01/28 12:58:24;;;;;;;20.23;10.02;;;;;;;4.13;66.87;100017.59;5206564;28;20049;-71
2023/01/28 13:01:21;;;;;;;23.05;10.90;;;;;;;4.10;66.61;99991.50;5202993;28;20111;-69
2023/01/28 13:04:20;;;;;;;19.40;10.68;;;;;;;4.13;66.09;100009.72;5202136;28;20075;-71
2023/01/28 13:07:21;;;;;;;21.65;9.93;;;;;;;4.13;66.68;100012.34;5204411;28;20362;-71
2023/01/28 13:10:20;;;;;;;19.38;10.25;;;;;;;4.20;66.93;100018.13;5206313;28;20060;-70
2023/01/28 13:13:34;;;;;;;22.77;10.15;;;;;;;4.23;66.71;100015.34;5220937;28;20143;-69
2023/01/28 13:16:24;;;;;;;20.52;10.48;;;;;;;4.15;66.06;100007.88;5230609;28;20055;-71
2023/01/28 13:19:36;;;;;;;26.08;11.95;;;;;;;4.26;65.46;100016.97;5225557;28;20142;-69
2023/01/28 13:22:35;;;;;;;50.00;20.33;;;;;;;4.22;65.40;100017.13;5226388;28;20094;-70
2023/01/28 13:25:28;;;;;;;18.52;9.95;;;;;;;4.00;65.12;100022.59;5215384;28;20045;-71
2023/01/28 13:28:26;;;;;;;18.23;9.77;;;;;;;4.11;64.39;100019.47;5217011;28;20084;-71
2023/01/28 13:31:19;;;;;;;16.48;8.25;;;;;;;4.12;65.31;100020.31;5226036;28;20656;-70
2023/01/28 13:34:36;;;;;;;21.77;9.25;;;;;;;4.23;64.79;100018.81;5226536;28;20194;-71
2023/01/28 13:37:43;;;;;;;27.70;13.75;;;;;;;4.16;63.99;100027.94;5226262;28;20068;-71
2023/01/28 13:40:33;;;;;;;38.45;16.15;;;;;;;3.73;64.27;100035.31;5219720;28;20619;-70
2023/01/28 13:43:32;;;;;;;39.60;15.82;;;;;;;3.51;64.52;100032.06;5213809;28;20080;-71
2023/01/28 13:46:28;;;;;;;36.00;15.55;;;;;;;3.88;64.67;100020.63;5210676;28;20061;-70
2023/01/28 13:49:28;;;;;;;39.88;17.25;;;;;;;4.18;64.16;100033.97;5209402;28;20511;-71
2023/01/28 13:52:31;;;;;;;46.10;19.20;;;;;;;3.93;64.28;99999.38;5205279;28;20092;-71
2023/01/28 13:55:28;;;;;;;43.17;16.98;;;;;;;4.17;63.56;100039.28;5205501;28;20103;-70
2023/01/28 13:58:56;;;;;;;44.40;16.70;;;;;;;4.38;63.72;100039.97;5215820;28;20052;-71
2023/01/28 14:01:46;;;;;;;41.65;16.80;;;;;;;4.40;63.11;100040.72;5225276;28;20138;-71
2023/01/28 14:04:57;;;;;;;44.05;17.80;;;;;;;4.52;62.85;100037.47;5222265;28;20103;-71
2023/01/28 14:08:09;;;;;;;17.88;8.80;;;;;;;4.45;63.87;100044.81;5221718;28;20514;-70
2023/01/28 14:11:05;;;;;;;17.90;9.80;;;;;;;4.45;63.17;100034.31;5224658;28;20331;-71
2023/01/28 14:14:26;;;;;;;13.27;7.57;;;;;;;4.62;63.42;100049.19;5218760;28;20541;-70
2023/01/28 14:17:26;;;;;;;12.95;6.93;;;;;;;4.66;63.00;100048.09;5219845;28;20485;-70
2023/01/28 14:20:26;;;;;;;25.80;11.63;;;;;;;4.67;62.52;100043.72;5222000;28;20126;-70
2023/01/28 14:23:20;;;;;;;25.83;10.60;;;;;;;4.81;62.84;100056.13;5222334;28;20174;-70